createdAt,value
2023-03-10T00:00:08.092Z,97609.25
2023-03-10T00:02:34.344Z,97580.84
2023-03-10T00:05:00.723Z,97580.28
2023-03-10T00:07:26.962Z,97557.97
2023-03-10T00:09:53.172Z,97529.56
2023-03-10T00:12:19.380Z,97530.31
2023-03-10T00:14:45.587Z,97535.47
2023-03-10T00:17:11.840Z,97513.63
2023-03-10T00:19:38.048Z,97491.81
2023-03-10T00:22:04.261Z,97468.00
2023-03-10T00:24:30.510Z,97449.78
2023-03-10T00:26:56.720Z,97431.59
2023-03-10T00:29:22.933Z,97410.03
2023-03-10T00:31:49.159Z,97385.72
2023-03-10T00:34:15.368Z,97380.09
2023-03-10T00:36:41.574Z,97364.19
2023-03-10T00:39:10.070Z,97363.16
2023-03-10T00:41:37.554Z,97342.66
2023-03-10T00:44:03.785Z,97328.25
2023-03-10T00:46:30.136Z,97307.25
2023-03-10T00:48:56.424Z,97285.19
2023-03-10T00:51:22.690Z,97264.69
2023-03-10T00:53:49.083Z,97235.72
2023-03-10T00:56:19.706Z,97236.53
2023-03-10T00:58:45.967Z,97248.06
2023-03-10T01:01:16.474Z,97243.44
2023-03-10T01:03:42.794Z,97228.34
2023-03-10T01:06:09.009Z,97213.69
2023-03-10T01:08:35.236Z,97187.28
2023-03-10T01:11:01.433Z,97162.19
2023-03-10T01:13:27.652Z,97141.16
2023-03-10T01:15:53.877Z,97111.69
2023-03-10T01:18:21.596Z,97089.66
2023-03-10T01:20:47.995Z,97075.81
2023-03-10T01:23:21.644Z,97060.44
2023-03-10T01:25:48.059Z,97045.31
2023-03-10T01:28:14.371Z,97020.72
2023-03-10T01:30:40.657Z,97024.81
2023-03-10T01:33:07.028Z,97016.59
2023-03-10T01:35:33.279Z,97006.13
2023-03-10T01:37:59.518Z,96983.84
2023-03-10T01:40:25.787Z,96965.63
2023-03-10T01:42:52.535Z,96941.53
2023-03-10T01:45:18.678Z,96918.47
2023-03-10T01:47:44.903Z,96913.88
2023-03-10T01:50:15.772Z,96898.22
2023-03-10T01:52:42.894Z,96886.94
2023-03-10T01:55:09.194Z,96886.47
2023-03-10T01:57:37.208Z,96863.91
2023-03-10T02:00:04.206Z,96863.63
2023-03-10T02:02:31.118Z,96861.28
2023-03-10T02:04:57.366Z,96857.50
2023-03-10T02:07:24.953Z,96850.81
2023-03-10T02:09:51.153Z,96848.03
2023-03-10T02:12:17.485Z,96830.31
2023-03-10T02:14:44.242Z,96816.22
2023-03-10T02:17:11.526Z,96806.75
2023-03-10T02:19:51.120Z,96803.41
2023-03-10T02:22:17.395Z,96794.19
2023-03-10T02:24:54.049Z,96786.78
2023-03-10T02:27:27.339Z,96771.13
2023-03-10T02:29:59.790Z,96757.06
2023-03-10T02:32:26.749Z,96738.09
2023-03-10T02:34:53.005Z,96740.13
2023-03-10T02:37:20.088Z,96723.44
2023-03-10T02:39:46.294Z,96723.72
2023-03-10T02:42:12.496Z,96701.69
2023-03-10T02:44:38.707Z,96690.13
2023-03-10T02:47:04.947Z,96678.63
2023-03-10T02:49:31.173Z,96655.78
2023-03-10T02:51:57.370Z,96649.63
2023-03-10T02:54:23.586Z,96649.41
2023-03-10T02:56:49.778Z,96633.75
2023-03-10T02:59:15.990Z,96618.69
2023-03-10T03:01:42.203Z,96606.66
2023-03-10T03:04:08.489Z,96600.44
2023-03-10T03:06:34.764Z,96589.69
2023-03-10T03:09:00.979Z,96588.72
2023-03-10T03:11:27.295Z,96576.41
2023-03-10T03:13:53.505Z,96557.19
2023-03-10T03:16:19.781Z,96553.34
2023-03-10T03:18:46.045Z,96551.31
2023-03-10T03:21:13.203Z,96538.78
2023-03-10T03:23:39.432Z,96513.91
2023-03-10T03:26:06.028Z,96492.88
2023-03-10T03:28:32.240Z,96490.59
2023-03-10T03:30:58.440Z,96489.81
2023-03-10T03:33:24.675Z,96486.78
2023-03-10T03:35:50.909Z,96478.06
2023-03-10T03:38:17.132Z,96466.78
2023-03-10T03:40:43.335Z,96471.69
2023-03-10T03:43:09.630Z,96455.00
2023-03-10T03:45:35.864Z,96451.44
2023-03-10T03:48:02.070Z,96449.41
2023-03-10T03:50:28.284Z,96429.69
2023-03-10T03:52:54.489Z,96408.44
2023-03-10T03:55:20.722Z,96394.38
2023-03-10T03:57:46.952Z,96382.53
2023-03-10T04:00:14.873Z,96368.97
2023-03-10T04:02:41.186Z,96353.88
2023-03-10T04:05:07.488Z,96336.72
2023-03-10T04:07:33.719Z,96326.19
2023-03-10T04:10:00.644Z,96321.34
2023-03-10T04:12:28.568Z,96313.94
2023-03-10T04:14:54.795Z,96312.75
2023-03-10T04:17:20.988Z,96302.91
2023-03-10T04:19:54.209Z,96296.06
2023-03-10T04:22:27.041Z,96285.88
2023-03-10T04:24:53.264Z,96270.97
2023-03-10T04:27:19.503Z,96270.97
2023-03-10T04:29:45.724Z,96258.44
2023-03-10T04:32:11.957Z,96240.53
2023-03-10T04:34:38.234Z,96236.94
2023-03-10T04:37:04.425Z,96224.13
2023-03-10T04:39:30.644Z,96220.31
2023-03-10T04:41:56.853Z,96221.16
2023-03-10T04:44:31.623Z,96202.94
2023-03-10T04:46:58.088Z,96194.50
2023-03-10T04:49:24.324Z,96194.78
2023-03-10T04:51:50.554Z,96186.06
2023-03-10T04:54:16.767Z,96187.31
2023-03-10T04:56:42.976Z,96190.69
2023-03-10T04:59:09.189Z,96187.38
2023-03-10T05:01:35.498Z,96173.06
2023-03-10T05:04:02.002Z,96163.09
2023-03-10T05:06:28.256Z,96165.16
2023-03-10T05:08:54.480Z,96164.66
2023-03-10T05:11:20.690Z,96148.22
2023-03-10T05:13:46.946Z,96148.78
2023-03-10T05:16:17.824Z,96145.16
2023-03-10T05:18:44.099Z,96148.25
2023-03-10T05:21:10.322Z,96147.78
2023-03-10T05:23:36.532Z,96142.38
2023-03-10T05:26:03.744Z,96140.59
2023-03-10T05:28:29.951Z,96127.03
2023-03-10T05:30:56.183Z,96131.91
2023-03-10T05:33:22.391Z,96112.41
2023-03-10T05:35:48.641Z,96114.50
2023-03-10T05:38:14.892Z,96104.50
2023-03-10T05:40:41.179Z,96109.38
2023-03-10T05:43:07.374Z,96109.72
2023-03-10T05:45:33.586Z,96102.03
2023-03-10T05:47:59.787Z,96100.22
2023-03-10T05:50:26.009Z,96085.06
2023-03-10T05:52:52.219Z,96070.00
2023-03-10T05:55:18.906Z,96049.72
2023-03-10T05:57:45.161Z,96054.84
2023-03-10T06:00:12.699Z,96051.31
2023-03-10T06:02:38.910Z,96049.72
2023-03-10T06:05:05.796Z,96046.38
2023-03-10T06:07:32.176Z,96052.06
2023-03-10T06:09:58.424Z,96043.63
2023-03-10T06:12:24.632Z,96024.66
2023-03-10T06:14:50.868Z,96014.66
2023-03-10T06:17:19.427Z,96014.91
2023-03-10T06:19:45.982Z,96008.22
2023-03-10T06:22:12.180Z,96003.09
2023-03-10T06:24:38.393Z,95983.88
2023-03-10T06:27:04.721Z,95978.94
2023-03-10T06:29:30.941Z,95982.81
2023-03-10T06:31:57.210Z,95978.19
2023-03-10T06:34:23.483Z,95973.53
2023-03-10T06:36:49.703Z,95977.59
2023-03-10T06:39:15.900Z,95986.34
2023-03-10T06:41:42.143Z,95981.13
2023-03-10T06:44:08.339Z,95988.03
2023-03-10T06:46:34.543Z,95973.09
2023-03-10T06:49:00.751Z,95983.91
2023-03-10T06:51:26.970Z,95978.22
2023-03-10T06:53:53.180Z,95983.34
2023-03-10T06:56:19.968Z,95986.09
2023-03-10T06:58:46.183Z,95985.22
2023-03-10T07:01:24.605Z,95992.25
2023-03-10T07:03:50.843Z,95993.75
2023-03-10T07:06:17.081Z,95994.72
2023-03-10T07:08:43.280Z,95986.75
2023-03-10T07:11:09.502Z,95993.94
2023-03-10T07:13:35.722Z,96007.53
2023-03-10T07:16:01.943Z,96011.59
2023-03-10T07:18:28.148Z,96012.28
2023-03-10T07:20:54.371Z,96012.09
2023-03-10T07:23:20.574Z,96020.53
2023-03-10T07:25:46.790Z,96022.72
2023-03-10T07:28:13.180Z,96035.06
2023-03-10T07:30:39.546Z,96056.59
2023-03-10T07:33:05.854Z,96064.47
2023-03-10T07:35:33.556Z,96080.88
2023-03-10T07:38:00.974Z,96084.63
2023-03-10T07:40:27.193Z,96094.31
2023-03-10T07:42:53.536Z,96097.06
2023-03-10T07:45:19.750Z,96131.81
2023-03-10T07:47:45.960Z,96161.25
2023-03-10T07:50:12.168Z,96190.22
2023-03-10T07:52:38.475Z,96238.19
2023-03-10T07:55:04.832Z,96236.34
2023-03-10T07:57:31.032Z,96236.22
2023-03-10T07:59:57.246Z,96233.03
2023-03-10T08:02:23.457Z,96265.25
2023-03-10T08:04:49.685Z,96298.38
2023-03-10T08:07:15.898Z,96323.94
2023-03-10T08:09:42.103Z,96353.34
2023-03-10T08:12:08.483Z,96375.38
2023-03-10T08:14:34.775Z,96409.19
2023-03-10T08:17:01.008Z,96441.75
2023-03-10T08:19:27.221Z,96458.13
2023-03-10T08:21:56.701Z,96475.53
2023-03-10T08:24:23.268Z,96492.66
2023-03-10T08:26:49.479Z,96513.28
2023-03-10T08:29:15.701Z,96530.41
2023-03-10T08:31:41.930Z,96542.47
2023-03-10T08:34:08.134Z,96547.31
2023-03-10T08:36:34.340Z,96574.03
2023-03-10T08:39:00.571Z,96563.25
2023-03-10T08:41:27.968Z,96569.06
2023-03-10T08:43:54.384Z,96580.03
2023-03-10T08:46:20.853Z,96588.28
2023-03-10T08:48:47.611Z,96601.09
2023-03-10T08:51:16.016Z,96604.91
2023-03-10T08:53:42.733Z,96620.91
2023-03-10T08:56:08.946Z,96620.09
2023-03-10T08:58:35.156Z,96630.38
2023-03-10T09:01:01.381Z,96635.00
2023-03-10T09:03:30.206Z,96621.34
2023-03-10T09:05:57.624Z,96624.69
2023-03-10T09:08:25.140Z,96630.56
2023-03-10T09:10:53.250Z,96636.75
2023-03-10T09:13:19.443Z,96632.00
2023-03-10T09:15:45.665Z,96641.78
2023-03-10T09:18:12.343Z,96665.06
2023-03-10T09:20:39.011Z,96674.31
2023-03-10T09:23:05.369Z,96681.50
2023-03-10T09:25:31.730Z,96697.91
2023-03-10T09:27:57.999Z,96708.16
2023-03-10T09:30:24.298Z,96716.59
2023-03-10T09:32:50.638Z,96736.38
2023-03-10T09:35:16.905Z,96733.00
2023-03-10T09:37:43.123Z,96742.91
2023-03-10T09:40:11.565Z,96752.94
2023-03-10T09:42:41.116Z,96764.47
2023-03-10T09:45:10.441Z,96789.16
2023-03-10T09:47:55.389Z,96789.69
2023-03-10T09:50:56.922Z,96811.75
2023-03-10T09:53:28.475Z,96812.69
2023-03-10T09:55:54.699Z,96822.78
2023-03-10T09:58:27.136Z,96810.47
2023-03-10T10:00:53.416Z,96814.00
2023-03-10T10:03:23.572Z,96826.25
2023-03-10T10:05:50.468Z,96829.63
2023-03-10T10:08:26.066Z,96837.81
2023-03-10T10:10:54.590Z,96852.69
2023-03-10T10:13:20.915Z,96868.34
2023-03-10T10:15:51.234Z,96886.81
2023-03-10T10:18:38.137Z,96910.00
2023-03-10T10:21:14.339Z,96912.28
2023-03-10T10:23:42.771Z,96923.25
2023-03-10T10:26:13.391Z,96941.50
2023-03-10T10:28:43.189Z,96948.44
2023-03-10T10:31:16.365Z,96961.28
2023-03-10T10:33:51.715Z,96983.06
2023-03-10T10:36:18.998Z,96987.94
2023-03-10T10:38:52.077Z,96991.97
2023-03-10T10:41:19.189Z,97014.28
2023-03-10T10:43:45.549Z,97024.38
2023-03-10T10:46:12.573Z,97027.97
2023-03-10T10:48:42.791Z,97035.16
2023-03-10T10:51:19.414Z,97050.34
2023-03-10T10:53:45.972Z,97066.78
2023-03-10T10:56:13.107Z,97075.81
2023-03-10T10:58:39.978Z,97082.16
2023-03-10T11:01:15.799Z,97085.25
2023-03-10T11:03:45.649Z,97101.44
2023-03-10T11:06:12.740Z,97095.25
2023-03-10T11:08:38.993Z,97108.63
2023-03-10T11:11:14.392Z,97113.06
2023-03-10T11:13:46.477Z,97105.53
2023-03-10T11:16:16.755Z,97114.81
2023-03-10T11:21:28.464Z,97121.22
2023-03-10T11:23:58.392Z,97114.59
2023-03-10T11:27:00.311Z,97131.75
2023-03-10T11:29:26.545Z,97133.03
2023-03-10T11:31:55.551Z,97137.91
2023-03-10T11:34:24.088Z,97135.84
2023-03-10T11:37:12.484Z,97141.81
2023-03-10T11:39:43.395Z,97130.44
2023-03-10T11:42:09.625Z,97132.78
2023-03-10T11:44:41.736Z,97138.69
2023-03-10T11:50:24.780Z,97133.56
2023-03-10T11:52:53.042Z,97128.22
2023-03-10T11:55:21.029Z,97114.34
2023-03-10T11:57:50.466Z,97108.97
2023-03-10T12:00:18.676Z,97098.41
2023-03-10T12:02:51.029Z,97094.59
2023-03-10T12:05:18.378Z,97078.16
2023-03-10T12:07:45.049Z,97083.56
2023-03-10T12:10:11.224Z,97066.88
2023-03-10T12:12:38.215Z,97061.47
2023-03-10T12:15:05.765Z,97046.88
2023-03-10T12:17:31.953Z,97035.56
2023-03-10T12:20:10.336Z,97031.97
2023-03-10T12:22:37.252Z,97021.72
2023-03-10T12:25:03.603Z,97011.41
2023-03-10T12:27:31.692Z,96987.06
2023-03-10T12:29:57.947Z,96966.25
2023-03-10T12:32:42.507Z,96966.28
2023-03-10T12:35:22.074Z,96941.13
2023-03-10T12:37:48.302Z,96917.50
2023-03-10T12:40:43.590Z,96899.78
2023-03-10T12:43:28.513Z,96887.97
2023-03-10T12:45:54.722Z,96874.91
2023-03-10T12:48:20.919Z,96872.13
2023-03-10T12:50:59.743Z,96869.78
2023-03-10T12:53:25.925Z,96864.44
2023-03-10T12:56:10.698Z,96864.88
2023-03-10T12:58:36.910Z,96873.88
2023-03-10T13:01:04.094Z,96864.63
2023-03-10T13:03:31.249Z,96854.59
2023-03-10T13:05:58.664Z,96853.34
2023-03-10T13:08:26.038Z,96837.94
2023-03-10T13:10:52.452Z,96832.59
2023-03-10T13:13:18.662Z,96819.25
2023-03-10T13:15:45.763Z,96810.81
2023-03-10T13:18:15.052Z,96806.72
2023-03-10T13:20:41.254Z,96792.06
2023-03-10T13:23:14.339Z,96783.34
2023-03-10T13:25:50.492Z,96769.75
2023-03-10T13:28:16.699Z,96752.03
2023-03-10T13:30:42.906Z,96722.00
2023-03-10T13:33:19.258Z,96694.44
2023-03-10T13:35:45.473Z,96687.94
2023-03-10T13:38:15.677Z,96695.16
2023-03-10T13:40:42.707Z,96689.19
2023-03-10T13:43:18.723Z,96673.59
2023-03-10T13:45:47.635Z,96663.38
2023-03-10T13:48:13.885Z,96642.56
2023-03-10T13:50:40.094Z,96640.00
2023-03-10T13:53:06.315Z,96626.63
2023-03-10T13:55:38.458Z,96616.84
2023-03-10T13:58:04.722Z,96622.31
2023-03-10T14:00:30.939Z,96616.13
2023-03-10T14:02:57.186Z,96601.44
2023-03-10T14:05:40.010Z,96600.94
2023-03-10T14:08:06.373Z,96592.22
2023-03-10T14:10:32.681Z,96592.75
2023-03-10T14:12:58.892Z,96585.63
2023-03-10T14:15:29.273Z,96585.88
2023-03-10T14:18:07.663Z,96570.47
2023-03-10T14:20:34.663Z,96573.59
2023-03-10T14:23:03.576Z,96562.34
2023-03-10T14:25:29.781Z,96557.00
2023-03-10T14:28:00.141Z,96554.72
2023-03-10T14:30:27.265Z,96545.53
2023-03-10T14:32:54.054Z,96519.88
2023-03-10T14:35:20.645Z,96510.88
2023-03-10T14:37:47.511Z,96496.50
2023-03-10T14:40:13.727Z,96478.63
2023-03-10T14:42:39.935Z,96454.97
2023-03-10T14:45:18.375Z,96437.50
2023-03-10T14:47:44.804Z,96425.97
2023-03-10T14:50:14.579Z,96414.88
2023-03-10T14:52:40.806Z,96404.91
2023-03-10T14:55:08.544Z,96389.78
2023-03-10T14:57:34.759Z,96383.88
2023-03-10T15:00:00.964Z,96399.09
2023-03-10T15:02:27.177Z,96378.72
2023-03-10T15:04:53.458Z,96375.63
2023-03-10T15:07:19.721Z,96370.22
2023-03-10T15:09:45.968Z,96370.31
2023-03-10T15:12:12.890Z,96366.00
2023-03-10T15:14:39.167Z,96353.38
2023-03-10T15:17:05.358Z,96330.78
2023-03-10T15:19:31.573Z,96328.16
2023-03-10T15:21:57.817Z,96321.47
2023-03-10T15:24:24.055Z,96314.56
2023-03-10T15:26:50.479Z,96314.63
2023-03-10T15:29:17.179Z,96314.34
2023-03-10T15:31:43.466Z,96294.88
2023-03-10T15:34:09.737Z,96302.28
2023-03-10T15:36:36.227Z,96302.28
2023-03-10T15:39:02.719Z,96302.06
2023-03-10T15:41:28.986Z,96282.31
2023-03-10T15:47:14.320Z,96274.22
2023-03-10T15:49:42.683Z,96256.47
2023-03-10T15:58:10.623Z,96215.97
2023-03-10T16:00:39.262Z,96208.44
2023-03-10T16:06:19.959Z,96164.84
2023-03-10T16:08:53.221Z,96159.81
2023-03-10T16:17:31.580Z,96088.00
2023-03-10T16:23:09.422Z,96055.50
2023-03-10T16:25:35.694Z,96038.25
2023-03-10T16:28:10.570Z,96039.06
2023-03-10T16:45:16.699Z,95923.09
2023-03-10T16:47:43.292Z,95907.06
2023-03-10T16:50:10.185Z,95888.84
2023-03-10T16:52:38.713Z,95870.72
2023-03-10T16:55:05.195Z,95846.75
2023-03-10T16:57:31.408Z,95838.47
2023-03-10T16:59:57.621Z,95836.78
2023-03-10T17:02:26.528Z,95838.59
2023-03-10T17:04:52.735Z,95814.31
2023-03-10T17:07:19.067Z,95814.88
2023-03-10T17:09:45.325Z,95789.25
2023-03-10T17:12:11.521Z,95766.94
2023-03-10T17:14:37.743Z,95747.78
2023-03-10T17:17:05.862Z,95721.53
2023-03-10T17:19:33.581Z,95725.16
2023-03-10T17:21:59.802Z,95708.44
2023-03-10T17:24:26.332Z,95704.19
2023-03-10T17:26:52.533Z,95689.56
2023-03-10T17:29:18.746Z,95673.44
2023-03-10T17:31:44.973Z,95674.47
2023-03-10T17:34:11.943Z,95656.03
2023-03-10T17:36:41.243Z,95619.09
2023-03-10T17:39:07.534Z,95585.81
2023-03-10T17:41:34.301Z,95568.59
2023-03-10T17:44:00.527Z,95530.44
2023-03-10T17:46:28.303Z,95506.81
2023-03-10T17:48:54.815Z,95500.91
2023-03-10T17:51:22.123Z,95488.22
2023-03-10T17:53:48.340Z,95460.94
2023-03-10T17:56:14.872Z,95446.16
2023-03-10T17:58:41.081Z,95436.97
2023-03-10T18:01:13.811Z,95431.38
2023-03-10T18:03:40.130Z,95423.69
2023-03-10T18:06:11.545Z,95421.44
2023-03-10T18:08:37.765Z,95402.13
2023-03-10T18:11:04.313Z,95383.44
2023-03-10T18:13:30.657Z,95379.06
2023-03-10T18:15:56.945Z,95375.75
2023-03-10T18:18:23.230Z,95349.97
2023-03-10T18:20:49.450Z,95335.19
2023-03-10T18:23:15.699Z,95329.31
2023-03-10T18:25:41.920Z,95323.13
2023-03-10T18:28:08.119Z,95305.03
2023-03-10T18:30:34.375Z,95291.78
2023-03-10T18:33:00.606Z,95292.22
2023-03-10T18:35:26.816Z,95273.38
2023-03-10T18:37:53.026Z,95278.34
2023-03-10T18:40:19.227Z,95262.69
2023-03-10T18:42:45.438Z,95265.53
2023-03-10T18:45:13.723Z,95241.28
2023-03-10T18:47:40.002Z,95215.19
2023-03-10T18:50:08.861Z,95212.16
2023-03-10T18:52:43.473Z,95208.41
2023-03-10T18:55:10.737Z,95214.44
2023-03-10T18:57:36.945Z,95222.72
2023-03-10T19:00:04.267Z,95213.66
2023-03-10T19:02:30.530Z,95215.19
2023-03-10T19:04:56.771Z,95222.72
2023-03-10T19:07:22.998Z,95226.78
2023-03-10T19:09:52.232Z,95225.59
2023-03-10T19:12:18.452Z,95223.78
2023-03-10T19:14:44.669Z,95228.91
2023-03-10T19:17:10.870Z,95222.56
2023-03-10T19:19:40.066Z,95231.91
2023-03-10T19:22:06.336Z,95234.94
2023-03-10T19:24:32.550Z,95240.66
2023-03-10T19:26:58.806Z,95241.13
2023-03-10T19:29:25.092Z,95241.56
2023-03-10T19:31:51.573Z,95245.34
2023-03-10T19:34:17.768Z,95248.34
2023-03-10T19:36:43.973Z,95267.94
2023-03-10T19:39:10.174Z,95274.59
2023-03-10T19:41:36.384Z,95286.63
2023-03-10T19:44:02.581Z,95285.59
2023-03-10T19:46:28.863Z,95309.69
2023-03-10T19:48:55.084Z,95317.88
2023-03-10T19:51:22.260Z,95328.25
2023-03-10T19:53:48.512Z,95347.13
2023-03-10T19:56:15.796Z,95355.84
2023-03-10T19:58:41.995Z,95364.31
2023-03-10T20:01:14.933Z,95367.03
2023-03-10T20:03:41.364Z,95376.50
2023-03-10T20:06:07.601Z,95383.00
2023-03-10T20:08:33.803Z,95407.28
2023-03-10T20:11:00.265Z,95414.53
2023-03-10T20:13:26.481Z,95435.19
2023-03-10T20:15:52.694Z,95434.25
2023-03-10T20:18:18.921Z,95446.34
2023-03-10T20:20:45.109Z,95458.69
2023-03-10T20:23:11.314Z,95477.09
2023-03-10T20:25:37.579Z,95487.97
2023-03-10T20:28:03.800Z,95505.03
2023-03-10T20:30:30.123Z,95532.94
2023-03-10T20:32:56.636Z,95553.13
2023-03-10T20:35:22.977Z,95569.44
2023-03-10T20:37:49.208Z,95599.91
2023-03-10T20:40:19.231Z,95630.88
2023-03-10T20:42:45.462Z,95646.25
2023-03-10T20:45:11.667Z,95670.56
2023-03-10T20:47:37.900Z,95694.25
2023-03-10T20:50:05.336Z,95720.66
2023-03-10T20:52:34.875Z,95749.63
2023-03-10T20:55:01.439Z,95808.16
2023-03-10T20:57:27.674Z,95828.69
2023-03-10T20:59:53.874Z,95864.50
2023-03-10T21:02:20.085Z,95883.22
2023-03-10T21:04:46.307Z,95914.56
2023-03-10T21:07:12.546Z,95941.47
2023-03-10T21:09:38.751Z,95971.22
2023-03-10T21:12:04.993Z,96012.56
2023-03-10T21:14:31.197Z,96030.69
2023-03-10T21:16:57.546Z,96040.78
2023-03-10T21:19:23.777Z,96055.59
2023-03-10T21:21:49.976Z,96076.69
2023-03-10T21:24:16.194Z,96083.81
2023-03-10T21:26:42.405Z,96104.63
2023-03-10T21:29:08.607Z,96108.25
2023-03-10T21:31:34.823Z,96122.31
2023-03-10T21:34:01.049Z,96132.09
2023-03-10T21:36:30.348Z,96132.38
2023-03-10T21:38:56.955Z,96130.38
2023-03-10T21:41:26.868Z,96127.03
2023-03-10T21:43:53.558Z,96122.66
2023-03-10T21:46:19.873Z,96111.94
2023-03-10T21:48:46.156Z,96099.69
2023-03-10T21:51:13.008Z,96076.31
2023-03-10T21:53:39.213Z,96066.53
2023-03-10T21:56:05.623Z,96061.69
2023-03-10T21:58:31.831Z,96054.28
2023-03-10T22:00:58.119Z,96051.22
2023-03-10T22:03:24.482Z,96040.97
2023-03-10T22:05:50.710Z,96036.59
2023-03-10T22:08:16.909Z,96042.50
2023-03-10T22:10:43.133Z,96039.00
2023-03-10T22:13:09.344Z,96030.78
2023-03-10T22:15:35.555Z,96009.25
2023-03-10T22:18:01.772Z,95987.09
2023-03-10T22:20:28.053Z,95984.25
2023-03-10T22:22:54.336Z,96006.56
2023-03-10T22:25:20.537Z,95994.97
2023-03-10T22:27:50.679Z,96004.19
2023-03-10T22:30:17.052Z,96007.22
2023-03-10T22:32:43.380Z,96042.38
2023-03-10T22:35:09.623Z,96059.28
2023-03-10T22:37:36.454Z,96078.97
2023-03-10T22:40:02.669Z,96110.31
2023-03-10T22:44:54.284Z,96141.50
2023-03-10T22:47:20.513Z,96180.94
2023-03-10T22:49:46.722Z,96218.38
2023-03-10T22:52:12.926Z,96261.25
2023-03-10T22:54:39.188Z,96292.81
2023-03-10T22:57:05.557Z,96318.19
2023-03-10T22:59:31.793Z,96345.16
2023-03-10T23:01:58.077Z,96398.44
2023-03-10T23:04:24.305Z,96452.91
2023-03-10T23:06:50.502Z,96494.19
2023-03-10T23:09:16.731Z,96566.53
2023-03-10T23:11:42.932Z,96629.59
2023-03-10T23:14:09.145Z,96727.13
2023-03-10T23:16:35.395Z,96777.25
2023-03-10T23:19:02.557Z,96819.09
2023-03-10T23:21:28.847Z,96857.34
2023-03-10T23:23:55.066Z,96885.41
2023-03-10T23:26:21.264Z,96882.59
2023-03-10T23:28:47.477Z,96859.72
2023-03-10T23:31:13.705Z,96849.25
2023-03-10T23:33:39.944Z,96833.84
2023-03-10T23:36:06.316Z,96816.94
2023-03-10T23:38:32.551Z,96809.28
2023-03-10T23:40:58.763Z,96795.94
2023-03-10T23:43:25.891Z,96787.22
2023-03-10T23:45:52.122Z,96793.41
2023-03-10T23:48:18.355Z,96797.75
2023-03-10T23:50:44.859Z,96778.81
2023-03-10T23:53:11.706Z,96765.22
2023-03-10T23:55:38.902Z,96745.00
2023-03-10T23:58:05.215Z,96727.56
